createdAt,value
2019-05-22T00:00:57.938Z,94868.95
2019-05-22T00:03:24.291Z,94868.34
2019-05-22T00:05:50.641Z,94864.26
2019-05-22T00:08:17.466Z,94859.56
2019-05-22T00:10:43.583Z,94853.59
2019-05-22T00:13:09.968Z,94859.67
2019-05-22T00:15:38.578Z,94856.77
2019-05-22T00:18:02.669Z,94854.31
2019-05-22T00:20:29.053Z,94860.86
2019-05-22T00:22:55.344Z,94856.64
2019-05-22T00:25:21.728Z,94857.92
2019-05-22T00:27:48.067Z,94859.47
2019-05-22T00:30:14.399Z,94852.66
2019-05-22T00:32:40.750Z,94859.47
2019-05-22T00:35:07.085Z,94873.28
2019-05-22T00:37:33.409Z,94871.98
2019-05-22T00:39:59.821Z,94867.08
2019-05-22T00:42:26.151Z,94872.59
2019-05-22T00:44:52.525Z,94871.87
2019-05-22T00:47:18.856Z,94859.60
2019-05-22T00:49:45.187Z,94862.53
2019-05-22T00:52:11.516Z,94870.38
2019-05-22T00:54:37.862Z,94875.66
2019-05-22T00:57:04.225Z,94875.66
2019-05-22T00:59:30.572Z,94878.24
2019-05-22T01:04:23.265Z,94882.35
2019-05-22T01:06:49.646Z,94884.92
2019-05-22T01:09:16.012Z,94881.53
2019-05-22T01:11:42.386Z,94883.39
2019-05-22T01:14:08.691Z,94871.94
2019-05-22T01:16:35.131Z,94881.06
2019-05-22T01:19:01.450Z,94896.77
2019-05-22T01:21:27.833Z,94886.67
2019-05-22T01:23:54.169Z,94885.75
2019-05-22T01:26:20.524Z,94891.97
2019-05-22T01:28:46.959Z,94882.38
2019-05-22T01:31:13.349Z,94886.92
2019-05-22T01:33:39.704Z,94884.95
2019-05-22T01:38:32.463Z,94885.41
2019-05-22T01:40:58.773Z,94882.16
2019-05-22T01:43:25.116Z,94868.91
2019-05-22T01:45:51.451Z,94884.02
2019-05-22T01:48:17.784Z,94884.27
2019-05-22T01:50:44.106Z,94892.23
2019-05-22T01:53:10.463Z,94897.84
2019-05-22T01:55:36.893Z,94891.98
2019-05-22T01:58:03.257Z,94892.48
2019-05-22T02:00:29.583Z,94891.30
2019-05-22T02:02:55.905Z,94893.41
2019-05-22T02:05:22.560Z,94882.75
2019-05-22T02:07:48.904Z,94881.09
2019-05-22T02:12:41.683Z,94874.20
2019-05-22T02:15:07.925Z,94875.27
2019-05-22T02:17:34.306Z,94878.66
2019-05-22T02:20:00.667Z,94886.98
2019-05-22T02:22:27.007Z,94885.34
2019-05-22T02:24:53.355Z,94879.84
2019-05-22T02:27:19.703Z,94877.72
2019-05-22T02:29:46.145Z,94884.41
2019-05-22T02:34:38.825Z,94887.44
2019-05-22T02:37:05.170Z,94882.78
2019-05-22T02:39:31.523Z,94880.22
2019-05-22T02:41:57.820Z,94878.43
2019-05-22T02:46:50.524Z,94869.55
2019-05-22T02:49:16.858Z,94871.77
2019-05-22T02:51:43.227Z,94875.99
2019-05-22T02:54:09.597Z,94879.86
2019-05-22T02:56:35.960Z,94880.45
2019-05-22T02:59:02.279Z,94885.35
2019-05-22T03:01:28.602Z,94883.23
2019-05-22T03:03:54.939Z,94891.79
2019-05-22T03:08:47.707Z,94878.59
2019-05-22T03:11:14.001Z,94876.80
2019-05-22T03:13:40.339Z,94880.34
2019-05-22T03:16:06.676Z,94883.59
2019-05-22T03:20:59.357Z,94895.06
2019-05-22T03:23:25.739Z,94900.44
2019-05-22T03:25:52.081Z,94899.86
2019-05-22T03:28:18.534Z,94908.72
2019-05-22T03:30:44.839Z,94913.40
2019-05-22T03:33:11.156Z,94913.84
2019-05-22T03:35:37.488Z,94910.20
2019-05-22T03:38:03.882Z,94912.75
2019-05-22T03:40:30.210Z,94917.34
2019-05-22T03:42:56.597Z,94909.25
2019-05-22T03:45:22.958Z,94900.81
2019-05-22T03:47:49.292Z,94906.94
2019-05-22T03:50:15.621Z,94915.67
2019-05-22T03:55:08.328Z,94903.20
2019-05-22T03:57:34.728Z,94907.86
2019-05-22T04:00:01.111Z,94911.22
2019-05-22T04:02:27.459Z,94919.95
2019-05-22T04:04:53.832Z,94923.67
2019-05-22T04:07:20.170Z,94924.87
2019-05-22T04:09:46.546Z,94922.83
2019-05-22T04:12:12.878Z,94927.98
2019-05-22T04:14:39.218Z,94928.44
2019-05-22T04:17:05.623Z,94916.00
2019-05-22T04:19:47.409Z,94923.95
2019-05-22T04:21:58.296Z,94926.38
2019-05-22T04:24:24.652Z,94919.05
2019-05-22T04:29:18.409Z,94917.16
2019-05-22T04:31:44.746Z,94921.70
2019-05-22T04:34:11.079Z,94910.88
2019-05-22T04:36:37.432Z,94907.73
2019-05-22T04:39:03.794Z,94904.41
2019-05-22T04:41:30.184Z,94906.38
2019-05-22T04:43:56.516Z,94907.85
2019-05-22T04:46:22.861Z,94905.97
2019-05-22T04:48:49.196Z,94907.20
2019-05-22T04:51:15.572Z,94920.65
2019-05-22T04:53:41.932Z,94921.47
2019-05-22T04:56:08.273Z,94916.74
2019-05-22T04:58:34.610Z,94918.89
2019-05-22T05:01:00.997Z,94916.55
2019-05-22T05:03:27.426Z,94914.02
2019-05-22T05:05:53.752Z,94914.85
2019-05-22T05:08:20.117Z,94906.08
2019-05-22T05:10:46.452Z,94899.77
2019-05-22T05:13:12.825Z,94899.34
2019-05-22T05:15:39.149Z,94903.44
2019-05-22T05:18:05.549Z,94907.09
2019-05-22T05:20:31.955Z,94901.41
2019-05-22T05:22:58.330Z,94897.09
2019-05-22T05:25:24.785Z,94895.47
2019-05-22T05:27:51.195Z,94900.41
2019-05-22T05:30:17.586Z,94906.58
2019-05-22T05:32:43.876Z,94908.76
2019-05-22T05:35:10.223Z,94911.25
2019-05-22T05:37:36.580Z,94912.00
2019-05-22T05:40:02.981Z,94912.42
2019-05-22T05:42:29.282Z,94911.49
2019-05-22T05:44:55.652Z,94912.44
2019-05-22T05:47:22.035Z,94921.72
2019-05-22T05:49:48.345Z,94922.17
2019-05-22T05:52:14.697Z,94920.34
2019-05-22T05:54:41.028Z,94926.58
2019-05-22T05:57:07.380Z,94934.46
2019-05-22T05:59:33.734Z,94942.77
2019-05-22T06:02:00.075Z,94940.92
2019-05-22T06:04:34.887Z,94945.70
2019-05-22T06:06:52.800Z,94939.97
2019-05-22T06:09:19.140Z,94943.38
2019-05-22T06:11:45.475Z,94936.56
2019-05-22T06:14:11.888Z,94936.08
2019-05-22T06:16:38.268Z,94941.06
2019-05-22T06:19:04.666Z,94939.57
2019-05-22T06:21:31.047Z,94942.91
2019-05-22T06:23:57.407Z,94944.93
2019-05-22T06:26:23.818Z,94946.57
2019-05-22T06:28:50.142Z,94944.28
2019-05-22T06:31:16.603Z,94944.28
2019-05-22T06:33:42.941Z,94937.44
2019-05-22T06:36:09.275Z,94938.90
2019-05-22T06:38:35.673Z,94936.85
2019-05-22T06:41:02.287Z,94936.85
2019-05-22T06:43:28.562Z,94923.34
2019-05-22T06:45:55.024Z,94923.34
2019-05-22T06:48:21.415Z,94937.28
2019-05-22T06:50:49.462Z,94939.05
2019-05-22T06:55:40.612Z,94933.56
2019-05-22T06:58:06.960Z,94933.56
2019-05-22T07:00:33.318Z,94935.68
2019-05-22T07:02:59.677Z,94933.50
2019-05-22T07:05:26.020Z,94933.53
2019-05-22T07:07:52.423Z,94898.41
2019-05-22T07:10:18.765Z,94898.41
2019-05-22T07:12:45.166Z,94921.97
2019-05-22T07:15:11.495Z,94905.39
2019-05-22T07:17:37.881Z,94946.83
2019-05-22T07:20:04.249Z,94905.30
2019-05-22T07:22:30.610Z,94905.30
2019-05-22T07:24:56.988Z,94889.55
2019-05-22T07:27:23.301Z,94889.55
2019-05-22T07:29:49.667Z,94897.75
2019-05-22T07:32:16.065Z,94876.19
2019-05-22T07:34:42.424Z,94876.19
2019-05-22T07:37:08.789Z,94880.83
2019-05-22T07:39:35.124Z,94880.39
2019-05-22T07:42:01.479Z,94880.39
2019-05-22T07:44:28.346Z,94889.89
2019-05-22T07:46:54.723Z,94883.45
2019-05-22T07:49:21.036Z,94880.91
2019-05-22T07:51:56.121Z,94869.09
2019-05-22T07:54:13.805Z,94869.09
2019-05-22T07:56:40.227Z,94881.16
2019-05-22T07:59:06.595Z,94881.16
2019-05-22T08:01:32.899Z,94882.73
2019-05-22T08:03:59.252Z,94884.39
2019-05-22T08:06:25.766Z,94871.94
2019-05-22T08:08:52.146Z,94871.94
2019-05-22T08:11:18.549Z,94880.91
2019-05-22T08:13:44.839Z,94868.36
2019-05-22T08:16:11.176Z,94872.00
2019-05-22T08:18:37.590Z,94874.09
2019-05-22T08:21:04.121Z,94874.64
2019-05-22T08:23:30.433Z,94873.94
2019-05-22T08:25:56.782Z,94873.94
2019-05-22T08:28:23.222Z,94869.52
2019-05-22T08:30:49.677Z,94869.52
2019-05-22T08:33:16.019Z,94879.59
2019-05-22T08:35:42.438Z,94887.23
2019-05-22T08:38:08.741Z,94887.23
2019-05-22T08:40:35.219Z,94877.98
2019-05-22T08:43:01.627Z,94878.65
2019-05-22T08:45:27.930Z,94849.99
2019-05-22T08:47:54.415Z,94849.99
2019-05-22T08:50:20.761Z,94873.13
2019-05-22T08:52:47.099Z,94873.13
2019-05-22T08:55:13.631Z,94883.76
2019-05-22T08:57:39.888Z,94883.76
2019-05-22T09:00:06.271Z,94879.87
2019-05-22T09:02:32.600Z,94883.75
2019-05-22T09:05:01.178Z,94884.70
2019-05-22T09:07:25.357Z,94880.75
2019-05-22T09:09:51.688Z,94876.98
2019-05-22T09:12:18.024Z,94871.07
2019-05-22T09:14:44.403Z,94870.87
2019-05-22T09:17:12.426Z,94872.16
2019-05-22T09:19:37.113Z,94869.03
2019-05-22T09:22:03.446Z,94862.48
2019-05-22T09:24:29.827Z,94858.05
2019-05-22T09:26:56.223Z,94850.25
2019-05-22T09:29:22.589Z,94853.12
2019-05-22T09:31:48.943Z,94849.99
2019-05-22T09:34:15.351Z,94848.43
2019-05-22T09:36:41.714Z,94845.14
2019-05-22T09:39:08.021Z,94839.58
2019-05-22T09:41:34.368Z,94842.63
2019-05-22T09:44:00.741Z,94841.33
2019-05-22T09:46:27.087Z,94852.77
2019-05-22T09:48:53.460Z,94855.35
2019-05-22T09:51:19.836Z,94856.50
2019-05-22T09:53:46.177Z,94852.97
2019-05-22T09:56:12.547Z,94856.26
2019-05-22T09:58:38.881Z,94858.06
2019-05-22T10:01:05.249Z,94849.52
2019-05-22T10:03:31.593Z,94844.47
2019-05-22T10:05:58.006Z,94838.91
2019-05-22T10:08:24.295Z,94842.56
2019-05-22T10:10:50.650Z,94853.25
2019-05-22T10:13:17.100Z,94851.20
2019-05-22T10:15:43.443Z,94840.25
2019-05-22T10:18:09.785Z,94833.66
2019-05-22T10:20:36.173Z,94829.31
2019-05-22T10:23:14.962Z,94835.70
2019-05-22T10:25:28.855Z,94824.19
2019-05-22T10:27:58.963Z,94829.04
2019-05-22T10:30:21.556Z,94838.02
2019-05-22T10:32:47.945Z,94836.99
2019-05-22T10:35:14.300Z,94837.39
2019-05-22T10:37:40.652Z,94835.30
2019-05-22T10:42:33.385Z,94834.61
2019-05-22T10:44:59.768Z,94830.41
2019-05-22T10:47:26.099Z,94830.34
2019-05-22T10:49:52.492Z,94823.98
2019-05-22T10:52:18.873Z,94813.93
2019-05-22T10:54:45.272Z,94809.23
2019-05-22T10:57:11.641Z,94819.80
2019-05-22T10:59:38.005Z,94823.80
2019-05-22T11:02:04.578Z,94823.91
2019-05-22T11:04:30.842Z,94823.72
2019-05-22T11:06:57.225Z,94818.55
2019-05-22T11:09:23.566Z,94812.63
2019-05-22T11:11:50.005Z,94815.20
2019-05-22T11:16:42.790Z,94824.42
2019-05-22T11:19:09.143Z,94817.21
2019-05-22T11:21:35.523Z,94816.23
2019-05-22T11:24:01.898Z,94803.78
2019-05-22T11:26:28.285Z,94805.16
2019-05-22T11:28:54.636Z,94801.91
2019-05-22T11:31:20.983Z,94801.28
2019-05-22T11:33:47.382Z,94797.59
2019-05-22T11:36:13.792Z,94793.61
2019-05-22T11:38:40.269Z,94790.40
2019-05-22T11:41:06.580Z,94793.13
2019-05-22T11:43:32.952Z,94791.30
2019-05-22T11:45:59.336Z,94786.80
2019-05-22T11:50:52.034Z,94795.92
2019-05-22T11:53:18.387Z,94789.53
2019-05-22T11:55:46.125Z,94796.64
2019-05-22T11:58:11.103Z,94797.88
2019-05-22T12:00:37.485Z,94787.00
2019-05-22T12:03:03.887Z,94783.55
2019-05-22T12:05:30.222Z,94778.69
2019-05-22T12:07:56.887Z,94783.34
2019-05-22T12:10:23.222Z,94778.65
2019-05-22T12:12:49.618Z,94779.59
2019-05-22T12:15:16.030Z,94777.28
2019-05-22T12:17:42.450Z,94776.34
2019-05-22T12:20:08.843Z,94772.94
2019-05-22T12:25:01.610Z,94773.80
2019-05-22T12:27:28.042Z,94768.98
2019-05-22T12:29:54.418Z,94766.20
2019-05-22T12:32:20.789Z,94768.31
2019-05-22T12:34:49.318Z,94767.57
2019-05-22T12:37:13.557Z,94768.63
2019-05-22T12:39:40.189Z,94756.22
2019-05-22T12:42:06.183Z,94743.89
2019-05-22T12:44:32.558Z,94747.10
2019-05-22T12:46:58.936Z,94744.17
2019-05-22T12:49:25.310Z,94738.72
2019-05-22T12:51:51.666Z,94737.31
2019-05-22T12:54:18.069Z,94731.25
2019-05-22T12:59:10.924Z,94730.38
2019-05-22T13:01:37.308Z,94723.77
2019-05-22T13:04:03.710Z,94726.55
2019-05-22T13:06:30.077Z,94723.92
2019-05-22T13:08:56.413Z,94722.12
2019-05-22T13:11:22.757Z,94732.69
2019-05-22T13:13:49.162Z,94737.31
2019-05-22T13:16:15.486Z,94736.34
2019-05-22T13:18:41.860Z,94736.69
2019-05-22T13:21:08.205Z,94732.54
2019-05-22T13:23:34.563Z,94730.11
2019-05-22T13:26:00.903Z,94728.19
2019-05-22T13:28:27.322Z,94733.28
2019-05-22T13:33:20.045Z,94736.57
2019-05-22T13:35:46.470Z,94738.06
2019-05-22T13:38:12.869Z,94732.63
2019-05-22T13:40:39.356Z,94732.97
2019-05-22T13:43:05.649Z,94725.61
2019-05-22T13:45:31.974Z,94720.80
2019-05-22T13:47:58.382Z,94721.47
2019-05-22T13:50:28.541Z,94717.20
2019-05-22T13:52:51.067Z,94709.17
2019-05-22T13:55:17.456Z,94711.41
2019-05-22T13:57:43.807Z,94703.45
2019-05-22T14:00:10.145Z,94700.33
2019-05-22T14:02:36.496Z,94695.06
2019-05-22T14:05:02.927Z,94699.98
2019-05-22T14:07:29.331Z,94693.39
2019-05-22T14:09:55.713Z,94689.05
2019-05-22T14:12:22.070Z,94690.81
2019-05-22T14:14:48.492Z,94686.51
2019-05-22T14:17:15.083Z,94684.41
2019-05-22T14:19:41.598Z,94671.28
2019-05-22T14:22:08.048Z,94664.83
2019-05-22T14:24:34.333Z,94662.17
2019-05-22T14:27:00.630Z,94663.27
2019-05-22T14:29:26.977Z,94655.60
2019-05-22T14:31:53.356Z,94652.90
2019-05-22T14:34:19.692Z,94653.56
2019-05-22T14:36:46.053Z,94657.62
2019-05-22T14:39:12.400Z,94660.02
2019-05-22T14:41:38.806Z,94659.87
2019-05-22T14:44:05.146Z,94664.92
2019-05-22T14:46:31.580Z,94659.12
2019-05-22T14:48:57.927Z,94652.48
2019-05-22T14:51:24.244Z,94651.84
2019-05-22T14:53:50.584Z,94652.08
2019-05-22T14:56:17.037Z,94651.26
2019-05-22T14:58:43.377Z,94650.42
2019-05-22T15:01:09.735Z,94640.64
2019-05-22T15:03:36.169Z,94641.03
2019-05-22T15:06:02.526Z,94638.80
2019-05-22T15:08:28.867Z,94643.07
2019-05-22T15:10:55.241Z,94634.78
2019-05-22T15:13:21.599Z,94637.50
2019-05-22T15:15:47.960Z,94636.62
2019-05-22T15:18:14.278Z,94629.60
2019-05-22T15:20:40.613Z,94623.39
2019-05-22T15:23:06.958Z,94624.80
2019-05-22T15:25:33.305Z,94625.34
2019-05-22T15:27:59.648Z,94620.66
2019-05-22T15:30:26.034Z,94619.23
2019-05-22T15:32:52.382Z,94614.34
2019-05-22T15:35:18.715Z,94612.08
2019-05-22T15:37:45.134Z,94613.88
2019-05-22T15:40:11.490Z,94608.09
2019-05-22T15:42:37.891Z,94614.00
2019-05-22T15:45:04.223Z,94616.50
2019-05-22T15:47:30.606Z,94623.50
2019-05-22T15:49:56.940Z,94626.91
2019-05-22T15:52:23.244Z,94630.44
2019-05-22T15:54:49.617Z,94620.80
2019-05-22T15:57:15.949Z,94618.77
2019-05-22T15:59:42.345Z,94620.05
2019-05-22T16:02:08.709Z,94619.78
2019-05-22T16:04:35.181Z,94619.50
2019-05-22T16:07:01.508Z,94616.33
2019-05-22T16:09:27.840Z,94615.28
2019-05-22T16:11:54.243Z,94616.18
2019-05-22T16:14:20.603Z,94614.63
2019-05-22T16:16:46.975Z,94608.09
2019-05-22T16:19:13.298Z,94617.59
2019-05-22T16:21:39.684Z,94615.48
2019-05-22T16:24:06.308Z,94616.50
2019-05-22T16:26:32.382Z,94621.47
2019-05-22T16:28:58.731Z,94624.40
2019-05-22T16:31:25.123Z,94622.13
2019-05-22T16:33:51.453Z,94627.45
2019-05-22T16:36:17.811Z,94631.33
2019-05-22T16:38:44.189Z,94634.25
2019-05-22T16:41:10.637Z,94633.09
2019-05-22T16:43:48.998Z,94631.60
2019-05-22T16:46:03.377Z,94646.00
2019-05-22T16:48:29.793Z,94650.81
2019-05-22T16:50:56.193Z,94652.61
2019-05-22T16:53:22.558Z,94658.56
2019-05-22T16:55:48.907Z,94664.35
2019-05-22T16:58:15.265Z,94661.50
2019-05-22T17:00:41.664Z,94668.77
2019-05-22T17:03:08.022Z,94670.88
2019-05-22T17:05:34.424Z,94673.78
2019-05-22T17:08:00.762Z,94678.55
2019-05-22T17:10:27.089Z,94683.17
2019-05-22T17:12:53.456Z,94690.30
2019-05-22T17:15:19.796Z,94694.87
2019-05-22T17:17:46.183Z,94694.71
2019-05-22T17:20:12.482Z,94697.30
2019-05-22T17:22:38.982Z,94691.07
2019-05-22T17:25:05.361Z,94693.70
2019-05-22T17:27:31.698Z,94692.56
2019-05-22T17:29:58.038Z,94698.04
2019-05-22T17:32:24.407Z,94698.39
2019-05-22T17:34:50.836Z,94700.50
2019-05-22T17:37:17.193Z,94697.57
2019-05-22T17:39:43.603Z,94695.45
2019-05-22T17:42:09.950Z,94699.33
2019-05-22T17:44:36.329Z,94701.88
2019-05-22T17:47:06.101Z,94703.55
2019-05-22T17:49:28.963Z,94710.71
2019-05-22T17:51:55.350Z,94710.91
2019-05-22T17:54:21.694Z,94711.72
2019-05-22T17:56:48.144Z,94710.95
2019-05-22T17:59:14.439Z,94716.39
2019-05-22T18:04:07.159Z,94710.55
2019-05-22T18:06:33.489Z,94707.58
2019-05-22T18:08:59.814Z,94703.70
2019-05-22T18:11:26.204Z,94709.81
2019-05-22T18:13:55.954Z,94723.55
2019-05-22T18:16:22.330Z,94733.41
2019-05-22T18:18:48.664Z,94733.67
2019-05-22T18:21:15.071Z,94734.54
2019-05-22T18:23:41.401Z,94744.67
2019-05-22T18:26:11.857Z,94747.72
2019-05-22T18:28:38.269Z,94751.80
2019-05-22T18:31:04.824Z,94763.56
2019-05-22T18:33:31.195Z,94777.41
2019-05-22T18:35:57.532Z,94794.67
2019-05-22T18:38:23.944Z,94801.01
2019-05-22T18:40:50.228Z,94804.91
2019-05-22T18:43:18.870Z,94800.58
2019-05-22T18:45:42.951Z,94796.30
2019-05-22T18:48:09.334Z,94806.00
2019-05-22T18:50:35.861Z,94796.64
2019-05-22T18:53:02.146Z,94792.07
2019-05-22T18:55:28.504Z,94788.08
2019-05-22T18:57:54.883Z,94782.21
2019-05-22T19:00:21.316Z,94781.63
2019-05-22T19:02:47.758Z,94775.76
2019-05-22T19:05:14.155Z,94780.25
2019-05-22T19:07:40.480Z,94792.34
2019-05-22T19:10:06.832Z,94798.32
2019-05-22T19:12:33.200Z,94798.12
2019-05-22T19:14:59.596Z,94794.09
2019-05-22T19:17:25.922Z,94792.95
2019-05-22T19:19:52.259Z,94800.34
2019-05-22T19:22:18.602Z,94802.31
2019-05-22T19:24:45.158Z,94811.84
2019-05-22T19:27:11.556Z,94805.77
2019-05-22T19:29:37.905Z,94819.70
2019-05-22T19:32:04.240Z,94824.93
2019-05-22T19:34:30.688Z,94818.73
2019-05-22T19:36:56.995Z,94833.76
2019-05-22T19:39:23.346Z,94836.72
2019-05-22T19:42:01.867Z,94834.87
2019-05-22T19:44:16.033Z,94837.59
2019-05-22T19:46:42.375Z,94843.81
2019-05-22T19:49:08.706Z,94850.05
2019-05-22T19:51:35.054Z,94849.48
2019-05-22T19:54:01.397Z,94834.48
2019-05-22T19:56:27.741Z,94824.88
2019-05-22T19:58:54.081Z,94823.06
2019-05-22T20:01:20.433Z,94812.39
2019-05-22T20:03:46.759Z,94808.16
2019-05-22T20:06:13.169Z,94807.34
2019-05-22T20:08:39.547Z,94807.96
2019-05-22T20:11:05.887Z,94804.17
2019-05-22T20:13:32.243Z,94801.73
2019-05-22T20:15:58.614Z,94794.73
2019-05-22T20:18:24.954Z,94797.42
2019-05-22T20:20:51.332Z,94802.37
2019-05-22T20:23:17.680Z,94808.14
2019-05-22T20:25:44.094Z,94805.42
2019-05-22T20:28:10.431Z,94802.28
2019-05-22T20:30:36.781Z,94805.67
2019-05-22T20:33:03.135Z,94808.19
2019-05-22T20:35:29.464Z,94800.36
2019-05-22T20:37:55.800Z,94798.05
2019-05-22T20:40:22.139Z,94797.99
2019-05-22T20:42:48.479Z,94802.84
2019-05-22T20:45:14.859Z,94799.70
2019-05-22T20:47:41.199Z,94795.98
2019-05-22T20:50:07.563Z,94790.32
2019-05-22T20:52:33.936Z,94801.76
2019-05-22T20:55:00.284Z,94798.92
2019-05-22T20:57:26.624Z,94795.99
2019-05-22T20:59:52.955Z,94790.41
2019-05-22T21:02:19.314Z,94793.67
2019-05-22T21:04:45.636Z,94794.28
2019-05-22T21:07:12.023Z,94800.84
2019-05-22T21:09:38.372Z,94805.20
2019-05-22T21:12:04.807Z,94815.06
2019-05-22T21:14:31.159Z,94821.41
2019-05-22T21:16:57.493Z,94817.68
2019-05-22T21:19:23.942Z,94822.12
2019-05-22T21:21:50.251Z,94818.05
2019-05-22T21:24:16.597Z,94820.63
2019-05-22T21:26:42.935Z,94828.96
2019-05-22T21:29:09.294Z,94832.26
2019-05-22T21:31:35.643Z,94831.90
2019-05-22T21:34:01.997Z,94828.28
2019-05-22T21:36:28.374Z,94827.61
2019-05-22T21:38:54.706Z,94825.03
2019-05-22T21:41:21.063Z,94821.27
2019-05-22T21:43:47.399Z,94820.81
2019-05-22T21:46:13.723Z,94825.61
2019-05-22T21:48:40.054Z,94826.32
2019-05-22T21:51:06.391Z,94823.39
2019-05-22T21:53:32.752Z,94824.46
2019-05-22T21:56:04.811Z,94834.41
2019-05-22T21:58:25.484Z,94850.12
2019-05-22T22:00:51.816Z,94846.36
2019-05-22T22:03:18.161Z,94852.02
2019-05-22T22:05:44.553Z,94854.02
2019-05-22T22:08:10.861Z,94864.06
2019-05-22T22:10:37.292Z,94869.58
2019-05-22T22:13:07.534Z,94863.14
2019-05-22T22:15:29.956Z,94870.75
2019-05-22T22:17:56.378Z,94864.92
2019-05-22T22:20:24.005Z,94865.74
2019-05-22T22:22:49.014Z,94863.05
2019-05-22T22:25:15.349Z,94860.48
2019-05-22T22:27:41.680Z,94859.44
2019-05-22T22:30:08.042Z,94864.48
2019-05-22T22:32:34.404Z,94865.41
2019-05-22T22:35:00.743Z,94861.55
2019-05-22T22:37:27.074Z,94865.54
2019-05-22T22:39:53.463Z,94866.13
2019-05-22T22:42:19.807Z,94859.34
2019-05-22T22:44:46.159Z,94851.16
2019-05-22T22:47:12.518Z,94849.73
2019-05-22T22:49:38.848Z,94843.07
2019-05-22T22:52:05.170Z,94859.81
2019-05-22T22:54:31.515Z,94861.23
2019-05-22T22:59:24.218Z,94868.87
2019-05-22T23:01:50.601Z,94861.13
2019-05-22T23:04:16.930Z,94863.58
2019-05-22T23:06:43.304Z,94863.72
2019-05-22T23:09:09.662Z,94863.00
2019-05-22T23:11:36.065Z,94868.39
2019-05-22T23:14:02.488Z,94868.39
2019-05-22T23:16:28.771Z,94863.70
2019-05-22T23:18:55.116Z,94857.73
2019-05-22T23:21:21.517Z,94859.27
2019-05-22T23:23:47.959Z,94849.56
2019-05-22T23:26:14.243Z,94850.50
2019-05-22T23:28:42.875Z,94846.63
2019-05-22T23:33:35.626Z,94844.20
2019-05-22T23:36:01.949Z,94841.40
2019-05-22T23:38:28.298Z,94846.19
2019-05-22T23:40:54.709Z,94838.34
2019-05-22T23:43:21.061Z,94832.81
2019-05-22T23:45:47.494Z,94837.53
2019-05-22T23:48:13.928Z,94829.55
2019-05-22T23:50:40.319Z,94836.80
2019-05-22T23:53:06.615Z,94838.80
2019-05-22T23:55:33.005Z,94834.34
2019-05-22T23:57:59.337Z,94838.44
